Time;durP1;ratioP1;P1;durP2;ratioP2;P2;SDS_P1;SDS_P2;PMS_P1;PMS_P2;Temp;Humidity;BMP_temperature;BMP_pressure;BME280_temperature;BME280_humidity;BME280_pressure;Samples;Min_cycle;Max_cycle;Signal;HPM_P1;HPM_P2
2022/05/11 00:00:58;;;;;;;;;8.25;7.50;;;;;;;;5031535;28;46854;-68
2022/05/11 00:03:24;;;;;;;;;6.75;6.75;;;;;;;;5042589;28;45466;-68
2022/05/11 00:05:50;;;;;;;;;7.00;7.00;;;;;;;;5033523;28;45406;-67
2022/05/11 00:08:15;;;;;;;;;7.75;7.00;;;;;;;;5023927;28;45596;-69
2022/05/11 00:10:41;;;;;;;;;9.50;8.25;;;;;;;;5038871;28;45603;-68
2022/05/11 00:13:06;;;;;;;;;7.75;7.75;;;;;;;;5031991;28;45377;-67
2022/05/11 00:15:32;;;;;;;;;6.50;6.50;;;;;;;;5041192;28;45852;-67
2022/05/11 00:17:57;;;;;;;;;8.75;8.00;;;;;;;;5033942;28;45361;-67
2022/05/11 00:20:23;;;;;;;;;6.75;6.25;;;;;;;;5024436;28;48457;-68
2022/05/11 00:22:52;;;;;;;;;9.00;8.00;;;;;;;;5039644;28;45527;-68
2022/05/11 00:25:17;;;;;;;;;8.25;8.25;;;;;;;;5030099;28;45325;-68
2022/05/11 00:27:43;;;;;;;;;7.50;6.50;;;;;;;;5035756;28;45420;-68
2022/05/11 00:30:09;;;;;;;;;5.00;5.00;;;;;;;;5033066;28;47237;-68
2022/05/11 00:32:34;;;;;;;;;6.75;6.75;;;;;;;;5030601;28;45545;-68
2022/05/11 00:34:59;;;;;;;;;5.00;5.00;;;;;;;;5029018;28;45516;-68
2022/05/11 00:37:25;;;;;;;;;4.00;4.00;;;;;;;;5020837;28;45494;-68
2022/05/11 00:39:50;;;;;;;;;4.50;4.50;;;;;;;;5035637;28;45779;-68
2022/05/11 00:42:15;;;;;;;;;4.75;4.75;;;;;;;;5049649;28;45239;-68
2022/05/11 00:44:42;;;;;;;;;5.00;5.00;;;;;;;;5035038;28;45302;-68
2022/05/11 00:47:11;;;;;;;;;5.75;5.75;;;;;;;;5035734;28;45374;-68
2022/05/11 00:49:44;;;;;;;;;7.75;4.75;;;;;;;;5033848;28;48574;-68
2022/05/11 00:52:16;;;;;;;;;4.75;3.50;;;;;;;;5033271;28;45566;-68
2022/05/11 00:55:02;;;;;;;;;5.00;4.25;;;;;;;;5033580;28;45424;-68
2022/05/11 00:57:50;;;;;;;;;5.50;5.50;;;;;;;;5048035;28;45629;-68
2022/05/11 01:00:17;;;;;;;;;7.50;7.00;;;;;;;;5024901;28;45851;-67
2022/05/11 01:02:44;;;;;;;;;4.50;4.50;;;;;;;;5035422;28;45326;-68
2022/05/11 01:05:09;;;;;;;;;8.00;4.25;;;;;;;;5034151;28;45404;-68
2022/05/11 01:07:35;;;;;;;;;3.50;3.50;;;;;;;;5034141;28;45459;-68
2022/05/11 01:10:01;;;;;;;;;4.50;4.50;;;;;;;;5033859;28;47675;-68
2022/05/11 01:15:30;;;;;;;;;7.25;6.00;;;;;;;;5031549;28;45576;-68
2022/05/11 01:17:56;;;;;;;;;6.25;5.00;;;;;;;;5021284;28;45430;-68
2022/05/11 01:20:22;;;;;;;;;5.00;5.00;;;;;;;;5035396;28;46085;-68
2022/05/11 01:23:00;;;;;;;;;4.25;4.25;;;;;;;;5033651;28;45728;-68
2022/05/11 01:25:26;;;;;;;;;5.00;4.75;;;;;;;;5035326;28;45322;-67
2022/05/11 01:27:59;;;;;;;;;5.00;5.00;;;;;;;;5035147;28;45554;-68
2022/05/11 01:30:25;;;;;;;;;5.00;5.00;;;;;;;;5033278;28;47813;-67
2022/05/11 01:32:53;;;;;;;;;4.50;4.25;;;;;;;;5050530;28;45535;-67
2022/05/11 01:35:21;;;;;;;;;6.00;6.00;;;;;;;;5035610;28;45416;-67
2022/05/11 01:38:04;;;;;;;;;6.00;5.00;;;;;;;;5034417;28;45233;-67
2022/05/11 01:40:29;;;;;;;;;2.00;2.00;;;;;;;;5016762;28;61570;-67
2022/05/11 01:42:54;;;;;;;;;6.00;5.00;;;;;;;;5033173;28;45385;-67
2022/05/11 01:45:20;;;;;;;;;4.25;4.25;;;;;;;;5034915;28;45493;-67
2022/05/11 01:47:45;;;;;;;;;6.25;5.00;;;;;;;;5033759;28;45531;-67
2022/05/11 01:50:10;;;;;;;;;7.25;6.25;;;;;;;;5034614;28;48464;-68
2022/05/11 01:52:35;;;;;;;;;5.75;5.75;;;;;;;;5045960;28;46308;-68
2022/05/11 01:55:01;;;;;;;;;4.00;4.00;;;;;;;;5029624;28;45406;-68
2022/05/11 01:57:26;;;;;;;;;8.00;5.75;;;;;;;;5032918;28;45429;-68
2022/05/11 01:59:51;;;;;;;;;9.25;7.75;;;;;;;;5034905;28;45534;-67
2022/05/11 02:02:16;;;;;;;;;4.75;4.75;;;;;;;;5035531;28;45370;-66
2022/05/11 02:10:10;;;;;;;;;5.75;4.75;;;;;;;;5034301;28;45475;-67
2022/05/11 02:12:36;;;;;;;;;5.75;5.75;;;;;;;;5034103;28;45295;-67
2022/05/11 02:15:01;;;;;;;;;5.00;5.00;;;;;;;;5033330;28;45365;-67
2022/05/11 02:17:27;;;;;;;;;4.50;3.75;;;;;;;;5034549;28;46192;-68
2022/05/11 02:19:52;;;;;;;;;5.50;5.00;;;;;;;;5036595;28;46450;-68
2022/05/11 02:22:17;;;;;;;;;5.00;5.00;;;;;;;;5034337;28;45251;-68
2022/05/11 02:24:42;;;;;;;;;5.25;5.25;;;;;;;;5034283;28;45329;-68
2022/05/11 02:27:07;;;;;;;;;4.50;4.00;;;;;;;;5034344;28;45294;-68
2022/05/11 02:29:33;;;;;;;;;5.25;4.75;;;;;;;;5034290;28;45816;-67
2022/05/11 02:31:58;;;;;;;;;9.75;5.75;;;;;;;;5035752;28;45369;-67
2022/05/11 02:37:07;;;;;;;;;1.50;1.50;;;;;;;;5029394;28;45508;-67
2022/05/11 02:39:32;;;;;;;;;5.00;5.00;;;;;;;;5032455;28;48313;-68
2022/05/11 02:41:57;;;;;;;;;5.25;4.50;;;;;;;;5034211;28;45485;-69
2022/05/11 02:44:23;;;;;;;;;5.75;4.25;;;;;;;;5034234;28;45598;-68
2022/05/11 02:46:49;;;;;;;;;7.50;4.00;;;;;;;;5034771;28;45523;-67
2022/05/11 02:49:14;;;;;;;;;5.50;4.75;;;;;;;;5031274;28;45724;-68
2022/05/11 02:51:39;;;;;;;;;5.50;5.25;;;;;;;;5033908;28;45380;-68
2022/05/11 02:54:04;;;;;;;;;6.75;5.50;;;;;;;;5034045;28;45429;-67
2022/05/11 02:56:29;;;;;;;;;4.50;4.50;;;;;;;;5049068;28;45454;-68
2022/05/11 02:58:55;;;;;;;;;7.25;5.50;;;;;;;;5034465;28;46164;-68
2022/05/11 03:01:20;;;;;;;;;7.25;7.25;;;;;;;;5032463;28;45987;-67
2022/05/11 03:03:45;;;;;;;;;9.75;7.00;;;;;;;;5046180;28;45775;-68
2022/05/11 03:06:10;;;;;;;;;14.00;12.75;;;;;;;;5021161;28;45279;-68
2022/05/11 03:08:36;;;;;;;;;17.00;13.75;;;;;;;;5048951;28;47428;-67
2022/05/11 03:11:01;;;;;;;;;13.50;13.50;;;;;;;;5035695;28;45373;-67
2022/05/11 03:13:26;;;;;;;;;21.25;17.75;;;;;;;;5032235;28;45316;-67
2022/05/11 03:15:53;;;;;;;;;14.50;12.75;;;;;;;;5033613;28;45451;-68
2022/05/11 03:18:18;;;;;;;;;18.00;15.75;;;;;;;;5033564;28;45769;-68
2022/05/11 03:20:43;;;;;;;;;17.50;15.00;;;;;;;;5033450;28;45284;-69
2022/05/11 03:23:09;;;;;;;;;16.25;15.75;;;;;;;;5035444;28;45488;-67
2022/05/11 03:25:34;;;;;;;;;14.25;12.75;;;;;;;;5033918;28;45277;-67
2022/05/11 03:27:59;;;;;;;;;16.25;14.00;;;;;;;;5033251;28;46161;-68
2022/05/11 03:30:25;;;;;;;;;15.50;15.50;;;;;;;;5033076;28;45543;-68
2022/05/11 03:35:33;;;;;;;;;15.25;14.25;;;;;;;;5033558;28;45506;-68
2022/05/11 03:37:59;;;;;;;;;15.50;14.25;;;;;;;;5033786;28;49562;-67
2022/05/11 03:40:24;;;;;;;;;15.00;14.00;;;;;;;;5032000;28;46305;-69
2022/05/11 03:42:50;;;;;;;;;9.25;9.00;;;;;;;;5035924;28;45392;-68
2022/05/11 03:45:22;;;;;;;;;13.00;12.00;;;;;;;;5032278;28;45284;-68
2022/05/11 03:47:47;;;;;;;;;16.00;16.00;;;;;;;;5031736;28;48827;-67
2022/05/11 03:50:13;;;;;;;;;11.75;11.75;;;;;;;;5047258;28;45405;-67
2022/05/11 03:52:38;;;;;;;;;19.00;17.00;;;;;;;;5032709;28;45552;-67
2022/05/11 03:55:04;;;;;;;;;17.00;15.75;;;;;;;;5044115;28;45387;-66
2022/05/11 03:57:30;;;;;;;;;12.25;12.25;;;;;;;;5020717;28;48561;-68
2022/05/11 03:59:55;;;;;;;;;13.50;13.50;;;;;;;;5034539;28;45484;-68
2022/05/11 04:02:20;;;;;;;;;11.50;10.50;;;;;;;;5051740;28;45365;-68
2022/05/11 04:04:45;;;;;;;;;12.00;12.00;;;;;;;;5036420;28;45486;-68
2022/05/11 04:07:10;;;;;;;;;14.50;14.25;;;;;;;;5036269;28;46600;-68
2022/05/11 04:09:36;;;;;;;;;16.00;11.75;;;;;;;;5036445;28;45357;-68
2022/05/11 04:12:01;;;;;;;;;11.75;11.75;;;;;;;;5036493;28;45346;-68
2022/05/11 04:14:26;;;;;;;;;15.75;15.75;;;;;;;;5036596;28;45379;-69
2022/05/11 04:16:56;;;;;;;;;15.75;13.50;;;;;;;;5038665;28;46052;-68
2022/05/11 04:19:21;;;;;;;;;14.50;14.50;;;;;;;;5034975;28;45625;-69
2022/05/11 04:21:46;;;;;;;;;17.25;17.00;;;;;;;;5035022;28;45504;-68
2022/05/11 04:24:11;;;;;;;;;13.75;13.75;;;;;;;;5035218;28;45602;-69
2022/05/11 04:26:36;;;;;;;;;13.75;13.75;;;;;;;;5034043;28;47713;-67
2022/05/11 04:29:02;;;;;;;;;14.50;12.50;;;;;;;;5038003;28;45488;-67
2022/05/11 04:31:27;;;;;;;;;13.00;13.00;;;;;;;;5034694;28;45218;-67
2022/05/11 04:33:52;;;;;;;;;15.25;14.25;;;;;;;;5036122;28;45468;-68
2022/05/11 04:36:17;;;;;;;;;13.25;13.00;;;;;;;;5034668;28;47501;-69
2022/05/11 04:38:42;;;;;;;;;15.00;12.00;;;;;;;;5036030;28;45514;-69
2022/05/11 04:41:08;;;;;;;;;10.00;10.00;;;;;;;;5033519;28;45410;-66
2022/05/11 04:43:33;;;;;;;;;18.00;16.75;;;;;;;;5036111;28;45484;-69
2022/05/11 04:45:58;;;;;;;;;16.25;14.25;;;;;;;;5035767;28;45400;-68
2022/05/11 04:48:24;;;;;;;;;18.25;16.75;;;;;;;;5035418;28;45470;-69
2022/05/11 04:50:49;;;;;;;;;16.75;14.75;;;;;;;;5036224;28;45432;-69
2022/05/11 04:53:16;;;;;;;;;15.25;14.50;;;;;;;;5050324;28;45493;-66
2022/05/11 04:55:41;;;;;;;;;17.75;15.50;;;;;;;;5037641;28;46824;-69
2022/05/11 04:58:07;;;;;;;;;14.75;13.25;;;;;;;;5035577;28;45525;-69
2022/05/11 05:00:32;;;;;;;;;15.75;15.00;;;;;;;;5035804;28;45424;-68
2022/05/11 05:02:58;;;;;;;;;14.00;13.50;;;;;;;;5036096;28;45391;-68
2022/05/11 05:05:23;;;;;;;;;14.00;12.25;;;;;;;;5050611;28;48429;-68
2022/05/11 05:07:48;;;;;;;;;14.25;11.25;;;;;;;;5035542;28;45761;-68
2022/05/11 05:10:15;;;;;;;;;15.00;13.00;;;;;;;;5034153;28;45338;-68
2022/05/11 05:12:41;;;;;;;;;15.00;14.00;;;;;;;;5033559;28;45640;-69
2022/05/11 05:15:06;;;;;;;;;14.00;14.00;;;;;;;;5033701;28;45671;-69
2022/05/11 05:17:31;;;;;;;;;10.50;9.75;;;;;;;;5050435;28;45442;-68
2022/05/11 05:19:57;;;;;;;;;12.00;12.00;;;;;;;;5036384;28;45589;-67
2022/05/11 05:22:22;;;;;;;;;15.25;15.25;;;;;;;;5035076;28;45381;-68
2022/05/11 05:24:47;;;;;;;;;15.25;15.25;;;;;;;;5034869;28;46097;-68
2022/05/11 05:27:14;;;;;;;;;14.50;14.50;;;;;;;;5034969;28;45478;-69
2022/05/11 05:32:23;;;;;;;;;15.50;11.75;;;;;;;;5035155;28;45384;-68
2022/05/11 05:34:49;;;;;;;;;14.00;12.75;;;;;;;;5037043;28;45999;-68
2022/05/11 05:37:15;;;;;;;;;14.00;12.50;;;;;;;;5035028;28;45481;-68
2022/05/11 05:39:41;;;;;;;;;12.00;11.25;;;;;;;;5035406;28;45475;-68
2022/05/11 05:42:06;;;;;;;;;9.75;8.25;;;;;;;;5035037;28;45439;-67
2022/05/11 05:44:32;;;;;;;;;11.75;11.75;;;;;;;;5034993;28;45528;-67
2022/05/11 05:47:04;;;;;;;;;13.00;11.25;;;;;;;;5037206;28;45370;-67
2022/05/11 05:49:30;;;;;;;;;13.75;13.75;;;;;;;;5033657;28;45452;-67
2022/05/11 05:51:56;;;;;;;;;14.25;13.50;;;;;;;;5046998;28;45270;-66
2022/05/11 05:54:21;;;;;;;;;15.25;13.00;;;;;;;;5023425;28;45551;-68
2022/05/11 05:56:46;;;;;;;;;15.75;14.25;;;;;;;;5035141;28;45414;-68
2022/05/11 05:59:14;;;;;;;;;13.75;12.75;;;;;;;;5035101;28;45311;-68
2022/05/11 06:01:39;;;;;;;;;13.75;13.75;;;;;;;;5046746;28;45669;-68
2022/05/11 06:04:05;;;;;;;;;14.00;13.75;;;;;;;;5029190;28;45608;-68
2022/05/11 06:06:30;;;;;;;;;13.75;13.75;;;;;;;;5033387;28;45874;-68
2022/05/11 06:08:55;;;;;;;;;15.75;13.75;;;;;;;;5035183;28;45343;-68
2022/05/11 06:11:20;;;;;;;;;17.25;15.25;;;;;;;;5035212;28;45367;-68
2022/05/11 06:13:46;;;;;;;;;16.75;16.75;;;;;;;;5036148;28;46454;-67
2022/05/11 06:16:13;;;;;;;;;14.75;11.00;;;;;;;;5034621;28;45428;-67
2022/05/11 06:18:41;;;;;;;;;16.75;15.75;;;;;;;;5034637;28;45410;-69
2022/05/11 06:21:07;;;;;;;;;18.00;14.25;;;;;;;;5033411;28;45373;-68
2022/05/11 06:23:32;;;;;;;;;16.75;16.75;;;;;;;;5033341;28;46855;-68
2022/05/11 06:25:57;;;;;;;;;13.75;13.75;;;;;;;;5035237;28;45331;-68
2022/05/11 06:28:22;;;;;;;;;12.00;12.00;;;;;;;;5033201;28;45341;-68
2022/05/11 06:30:48;;;;;;;;;14.25;12.25;;;;;;;;5034304;28;45453;-68
2022/05/11 06:33:13;;;;;;;;;16.50;16.50;;;;;;;;5034268;28;46402;-68
2022/05/11 06:35:38;;;;;;;;;15.25;15.25;;;;;;;;5033148;28;45520;-68
2022/05/11 06:38:04;;;;;;;;;15.50;13.50;;;;;;;;5034985;28;45526;-68
2022/05/11 06:40:30;;;;;;;;;13.25;12.25;;;;;;;;5033943;28;45568;-67
2022/05/11 06:42:55;;;;;;;;;16.00;14.75;;;;;;;;5034181;28;46415;-68
2022/05/11 06:45:23;;;;;;;;;14.00;13.50;;;;;;;;5034035;28;45533;-67
2022/05/11 06:47:49;;;;;;;;;15.00;14.25;;;;;;;;5034310;28;45342;-68
2022/05/11 06:50:14;;;;;;;;;11.50;11.50;;;;;;;;5035341;28;45437;-69
2022/05/11 06:52:40;;;;;;;;;13.00;12.75;;;;;;;;5034462;28;45350;-69
2022/05/11 07:00:33;;;;;;;;;13.50;12.25;;;;;;;;5033699;28;45299;-69
2022/05/11 07:02:59;;;;;;;;;14.75;12.00;;;;;;;;5033521;28;45323;-68
2022/05/11 07:05:25;;;;;;;;;12.25;12.25;;;;;;;;5034378;28;45278;-68
2022/05/11 07:07:51;;;;;;;;;12.50;12.50;;;;;;;;5032379;28;45422;-68
2022/05/11 07:10:16;;;;;;;;;17.75;16.75;;;;;;;;5033799;28;45365;-68
2022/05/11 07:12:48;;;;;;;;;13.00;13.00;;;;;;;;5033385;28;46094;-68
2022/05/11 07:15:15;;;;;;;;;13.25;13.25;;;;;;;;5033698;28;47616;-68
2022/05/11 07:17:48;;;;;;;;;13.50;12.50;;;;;;;;5032525;28;45409;-69
2022/05/11 07:20:18;;;;;;;;;14.25;11.50;;;;;;;;5033448;28;45447;-68
2022/05/11 07:22:43;;;;;;;;;14.50;14.50;;;;;;;;5035138;28;45777;-67
2022/05/11 07:25:10;;;;;;;;;12.00;12.00;;;;;;;;5033350;28;45215;-69
2022/05/11 07:27:36;;;;;;;;;13.50;13.00;;;;;;;;5033806;28;45426;-68
2022/05/11 07:30:03;;;;;;;;;9.75;9.75;;;;;;;;5033837;28;45392;-69
2022/05/11 07:32:28;;;;;;;;;11.25;11.25;;;;;;;;5048397;28;48345;-69
2022/05/11 07:34:53;;;;;;;;;10.25;10.25;;;;;;;;5033638;28;45376;-68
2022/05/11 07:37:19;;;;;;;;;8.50;8.50;;;;;;;;5033525;28;45519;-68
2022/05/11 07:39:44;;;;;;;;;10.25;10.25;;;;;;;;5032246;28;45464;-69
2022/05/11 07:42:09;;;;;;;;;13.25;12.00;;;;;;;;5048909;28;47467;-68
2022/05/11 07:44:35;;;;;;;;;11.75;11.75;;;;;;;;5032755;28;45321;-68
2022/05/11 07:47:00;;;;;;;;;9.00;8.00;;;;;;;;5034876;28;45427;-68
2022/05/11 07:49:25;;;;;;;;;12.25;10.75;;;;;;;;5033368;28;45436;-68
2022/05/11 07:51:52;;;;;;;;;13.50;11.00;;;;;;;;5044889;28;47619;-68
2022/05/11 07:54:17;;;;;;;;;10.00;10.00;;;;;;;;5038172;28;45200;-68
2022/05/11 08:02:10;;;;;;;;;12.00;11.00;;;;;;;;5030977;28;45447;-68
2022/05/11 08:04:36;;;;;;;;;9.50;9.50;;;;;;;;5031509;28;45442;-68
2022/05/11 08:07:01;;;;;;;;;9.75;9.50;;;;;;;;5033233;28;45863;-68
2022/05/11 08:09:27;;;;;;;;;9.50;9.50;;;;;;;;5031725;28;45330;-68
2022/05/11 08:11:55;;;;;;;;;10.50;10.25;;;;;;;;5032769;28;45308;-68
2022/05/11 08:14:20;;;;;;;;;10.75;8.75;;;;;;;;5033600;28;45564;-68
2022/05/11 08:16:51;;;;;;;;;9.50;9.50;;;;;;;;5029641;28;45382;-68
2022/05/11 08:19:16;;;;;;;;;9.25;9.25;;;;;;;;5030679;28;45246;-68
2022/05/11 08:21:42;;;;;;;;;5.75;5.75;;;;;;;;5031615;28;45231;-68
2022/05/11 08:24:07;;;;;;;;;10.50;8.25;;;;;;;;5030271;28;45468;-67
2022/05/11 08:26:32;;;;;;;;;11.25;7.75;;;;;;;;5032878;28;45226;-68
2022/05/11 08:28:57;;;;;;;;;6.50;6.50;;;;;;;;5034980;28;45314;-68
2022/05/11 08:34:06;;;;;;;;;4.75;4.75;;;;;;;;5032449;28;45326;-68
2022/05/11 08:36:32;;;;;;;;;4.75;4.00;;;;;;;;5032675;28;45270;-68
2022/05/11 08:38:58;;;;;;;;;3.75;3.75;;;;;;;;5030581;28;45610;-68
2022/05/11 08:41:38;;;;;;;;;4.00;3.25;;;;;;;;5032805;28;45497;-70
2022/05/11 08:44:14;;;;;;;;;5.00;3.50;;;;;;;;5035418;28;45429;-68
2022/05/11 08:46:47;;;;;;;;;4.00;4.00;;;;;;;;5032164;28;45536;-69
2022/05/11 08:49:35;;;;;;;;;3.00;3.00;;;;;;;;5034392;28;45544;-68
2022/05/11 08:52:02;;;;;;;;;3.50;3.50;;;;;;;;5034000;28;47990;-68
2022/05/11 08:54:35;;;;;;;;;2.00;2.00;;;;;;;;5034553;28;45266;-68
2022/05/11 08:57:01;;;;;;;;;6.00;3.00;;;;;;;;5036052;28;45410;-68
2022/05/11 08:59:28;;;;;;;;;4.50;4.50;;;;;;;;5034629;28;45543;-69
2022/05/11 09:01:58;;;;;;;;;3.00;3.00;;;;;;;;5036336;28;45330;-68
2022/05/11 09:04:29;;;;;;;;;3.75;3.75;;;;;;;;5032947;28;45564;-68
2022/05/11 09:06:56;;;;;;;;;3.50;3.50;;;;;;;;5047951;28;45986;-68
2022/05/11 09:09:21;;;;;;;;;5.00;4.00;;;;;;;;5024293;28;45514;-68
2022/05/11 09:11:48;;;;;;;;;4.50;4.50;;;;;;;;5035419;28;45534;-68
2022/05/11 09:14:15;;;;;;;;;3.50;3.50;;;;;;;;5037092;28;45378;-70
2022/05/11 09:16:45;;;;;;;;;5.25;4.00;;;;;;;;5036354;28;45349;-69
2022/05/11 09:19:13;;;;;;;;;4.00;4.00;;;;;;;;5047619;28;45523;-69
2022/05/11 09:21:41;;;;;;;;;3.75;3.75;;;;;;;;5026266;28;45871;-69
2022/05/11 09:24:09;;;;;;;;;7.00;6.00;;;;;;;;5035440;28;45476;-69
2022/05/11 09:26:36;;;;;;;;;4.00;4.00;;;;;;;;5035432;28;45425;-69
2022/05/11 09:29:19;;;;;;;;;2.75;2.75;;;;;;;;5037412;28;45635;-68
2022/05/11 09:31:45;;;;;;;;;1.00;1.00;;;;;;;;5036267;28;46247;-69
2022/05/11 09:34:12;;;;;;;;;4.25;4.25;;;;;;;;5047282;28;46254;-69
2022/05/11 09:36:52;;;;;;;;;3.50;3.50;;;;;;;;5026105;28;45563;-68
2022/05/11 09:39:18;;;;;;;;;1.75;1.75;;;;;;;;5033877;28;45476;-68
2022/05/11 09:41:49;;;;;;;;;3.00;3.00;;;;;;;;5033680;28;45627;-70
2022/05/11 09:44:24;;;;;;;;;2.50;2.50;;;;;;;;5036547;28;45398;-68
2022/05/11 09:46:50;;;;;;;;;4.00;3.00;;;;;;;;5047122;28;45514;-69
2022/05/11 09:49:15;;;;;;;;;3.75;3.75;;;;;;;;5029677;28;45419;-68
2022/05/11 09:51:43;;;;;;;;;3.50;3.00;;;;;;;;5047770;28;47410;-68
2022/05/11 09:54:28;;;;;;;;;4.75;4.75;;;;;;;;5022187;28;45395;-67
2022/05/11 09:56:54;;;;;;;;;2.00;2.00;;;;;;;;5034455;28;45428;-69
2022/05/11 09:59:25;;;;;;;;;3.00;3.00;;;;;;;;5036015;28;45374;-68
2022/05/11 10:02:02;;;;;;;;;3.25;2.25;;;;;;;;5034741;28;46395;-68
2022/05/11 10:04:39;;;;;;;;;2.75;2.50;;;;;;;;5030100;28;46437;-69
2022/05/11 10:07:07;;;;;;;;;2.00;2.00;;;;;;;;5029314;28;49827;-68
2022/05/11 10:09:34;;;;;;;;;3.25;3.25;;;;;;;;5034496;28;45294;-70
2022/05/11 10:12:00;;;;;;;;;3.00;3.00;;;;;;;;5034536;28;45698;-69
2022/05/11 10:23:02;;;;;;;;;3.00;3.00;;;;;;;;5035579;28;45840;-69
2022/05/11 10:25:41;;;;;;;;;2.00;2.00;;;;;;;;5029711;28;45535;-69
2022/05/11 10:28:23;;;;;;;;;1.75;1.75;;;;;;;;5030297;28;45438;-67
2022/05/11 10:31:06;;;;;;;;;1.50;1.50;;;;;;;;5031697;28;45439;-67
2022/05/11 10:33:35;;;;;;;;;2.00;2.00;;;;;;;;5029182;28;48863;-68
2022/05/11 10:36:03;;;;;;;;;3.00;3.00;;;;;;;;5033282;28;45525;-69
2022/05/11 10:38:31;;;;;;;;;3.50;3.50;;;;;;;;5032014;28;45563;-68
2022/05/11 10:41:15;;;;;;;;;2.50;2.50;;;;;;;;5033778;28;45385;-70
2022/05/11 10:43:50;;;;;;;;;3.50;2.75;;;;;;;;5028614;28;45880;-71
2022/05/11 10:46:30;;;;;;;;;4.00;4.00;;;;;;;;5044625;28;46173;-70
2022/05/11 10:48:58;;;;;;;;;3.75;3.75;;;;;;;;5027361;28;46950;-69
2022/05/11 10:51:42;;;;;;;;;2.75;2.75;;;;;;;;5033742;28;45410;-70
2022/05/11 10:54:28;;;;;;;;;2.00;2.00;;;;;;;;5032702;28;48646;-69
2022/05/11 10:57:04;;;;;;;;;2.00;2.00;;;;;;;;5032378;28;45371;-71
2022/05/11 10:59:48;;;;;;;;;4.00;3.00;;;;;;;;5049171;28;45421;-70
2022/05/11 11:02:23;;;;;;;;;4.25;3.00;;;;;;;;5050687;28;45546;-69
2022/05/11 11:05:03;;;;;;;;;3.25;3.25;;;;;;;;5038826;28;48570;-70
2022/05/11 11:07:38;;;;;;;;;3.25;3.25;;;;;;;;5029306;28;45479;-69
2022/05/11 11:10:22;;;;;;;;;5.25;4.25;;;;;;;;5028755;28;45443;-69
2022/05/11 11:13:05;;;;;;;;;4.75;3.75;;;;;;;;5033888;28;45427;-70
2022/05/11 11:15:33;;;;;;;;;6.00;4.00;;;;;;;;5033164;28;45460;-71
2022/05/11 11:17:59;;;;;;;;;4.00;4.00;;;;;;;;5030498;28;45381;-70
2022/05/11 11:20:25;;;;;;;;;4.25;4.25;;;;;;;;5031795;28;45748;-69
2022/05/11 11:23:09;;;;;;;;;4.25;4.00;;;;;;;;5041060;28;45414;-68
2022/05/11 11:25:45;;;;;;;;;4.75;3.75;;;;;;;;5021696;28;48615;-69
2022/05/11 11:28:14;;;;;;;;;2.00;2.00;;;;;;;;5030386;28;45507;-69
2022/05/11 11:30:40;;;;;;;;;5.25;5.00;;;;;;;;5037171;28;45432;-69
2022/05/11 11:33:12;;;;;;;;;3.00;2.00;;;;;;;;5027883;28;45447;-68
2022/05/11 11:35:43;;;;;;;;;2.50;2.00;;;;;;;;5061805;28;47733;-69
2022/05/11 11:38:22;;;;;;;;;3.00;3.00;;;;;;;;5038266;28;46377;-69
2022/05/11 11:41:07;;;;;;;;;2.50;2.50;;;;;;;;5036072;28;45575;-69
2022/05/11 11:43:40;;;;;;;;;3.75;3.00;;;;;;;;5021058;28;45450;-69
2022/05/11 11:46:06;;;;;;;;;3.25;3.25;;;;;;;;5027271;28;45682;-71
2022/05/11 11:48:31;;;;;;;;;3.00;3.00;;;;;;;;5039904;28;45432;-70
2022/05/11 11:50:59;;;;;;;;;3.00;3.00;;;;;;;;5027313;28;45457;-70
2022/05/11 11:53:43;;;;;;;;;1.00;1.00;;;;;;;;5044980;28;45433;-70
2022/05/11 11:56:23;;;;;;;;;2.00;2.00;;;;;;;;5028498;28;45852;-70
2022/05/11 11:59:00;;;;;;;;;3.25;2.00;;;;;;;;5041707;28;45392;-70
2022/05/11 12:01:26;;;;;;;;;1.50;1.25;;;;;;;;5023245;28;45312;-69
2022/05/11 12:03:55;;;;;;;;;2.00;2.00;;;;;;;;5050258;28;45562;-70
2022/05/11 12:17:25;;;;;;;;;1.50;1.50;;;;;;;;5046156;28;46049;-71
2022/05/11 12:19:57;;;;;;;;;1.00;1.00;;;;;;;;5024943;28;45539;-70
2022/05/11 12:22:31;;;;;;;;;3.00;3.00;;;;;;;;5037718;28;45512;-70
2022/05/11 12:24:59;;;;;;;;;1.00;1.00;;;;;;;;5035708;28;45460;-70
2022/05/11 12:27:26;;;;;;;;;2.00;2.00;;;;;;;;5034187;28;46523;-71
2022/05/11 12:29:56;;;;;;;;;2.00;2.00;;;;;;;;5048984;28;45353;-70
2022/05/11 12:32:23;;;;;;;;;1.00;1.00;;;;;;;;5029206;28;45344;-70
2022/05/11 12:34:48;;;;;;;;;1.00;1.00;;;;;;;;5044690;28;45688;-70
2022/05/11 12:37:33;;;;;;;;;1.00;1.00;;;;;;;;5030330;28;46026;-71
2022/05/11 12:40:00;;;;;;;;;1.00;1.00;;;;;;;;5041959;28;45553;-69
2022/05/11 12:42:26;;;;;;;;;2.00;1.00;;;;;;;;5042687;28;50455;-69
2022/05/11 12:44:51;;;;;;;;;1.00;1.00;;;;;;;;5029728;28;45749;-70
2022/05/11 12:47:16;;;;;;;;;2.00;2.00;;;;;;;;5049779;28;45622;-71
2022/05/11 12:49:46;;;;;;;;;1.50;1.50;;;;;;;;5026872;28;45320;-71
2022/05/11 12:52:15;;;;;;;;;1.00;1.00;;;;;;;;5035411;28;45591;-71
2022/05/11 12:54:40;;;;;;;;;2.00;1.00;;;;;;;;5039496;28;45524;-70
2022/05/11 12:57:12;;;;;;;;;1.75;1.75;;;;;;;;5029478;28;45611;-70
2022/05/11 12:59:39;;;;;;;;;1.00;1.00;;;;;;;;5047684;28;45487;-70
2022/05/11 13:02:26;;;;;;;;;0.00;0.00;;;;;;;;5030704;28;45381;-70
2022/05/11 13:04:53;;;;;;;;;2.75;1.50;;;;;;;;5043710;28;45415;-69
2022/05/11 13:07:27;;;;;;;;;3.00;2.00;;;;;;;;5028727;28;45425;-70
2022/05/11 13:09:54;;;;;;;;;2.00;0.00;;;;;;;;5039909;28;45338;-70
2022/05/11 13:12:20;;;;;;;;;0.00;0.00;;;;;;;;5045797;28;45490;-71
2022/05/11 13:14:50;;;;;;;;;1.50;1.50;;;;;;;;5033777;28;45706;-71
2022/05/11 13:17:25;;;;;;;;;1.75;1.75;;;;;;;;5033611;28;45923;-71
2022/05/11 13:19:52;;;;;;;;;0.00;0.00;;;;;;;;5037557;28;45234;-70
2022/05/11 13:22:22;;;;;;;;;3.00;1.25;;;;;;;;5035548;28;45312;-71
2022/05/11 13:24:51;;;;;;;;;7.25;7.00;;;;;;;;5033983;28;45473;-70
2022/05/11 13:27:48;;;;;;;;;1.00;1.00;;;;;;;;5033586;28;45729;-69
2022/05/11 13:30:28;;;;;;;;;0.33;0.33;;;;;;;;5034685;28;45342;-69
2022/05/11 13:32:55;;;;;;;;;0.25;0.00;;;;;;;;5034833;28;45461;-70
2022/05/11 13:35:26;;;;;;;;;1.00;1.00;;;;;;;;5051624;28;45203;-70
2022/05/11 13:37:57;;;;;;;;;2.00;2.00;;;;;;;;5035398;28;46573;-70
2022/05/11 13:40:29;;;;;;;;;0.00;0.00;;;;;;;;5033764;28;45468;-69
2022/05/11 13:42:54;;;;;;;;;1.00;1.00;;;;;;;;5034074;28;45271;-70
2022/05/11 13:45:21;;;;;;;;;0.00;0.00;;;;;;;;5035292;28;45358;-70
2022/05/11 13:50:36;;;;;;;;;0.00;0.00;;;;;;;;5035123;28;45384;-70
2022/05/11 13:53:01;;;;;;;;;1.00;1.00;;;;;;;;5037189;28;45322;-70
2022/05/11 13:55:31;;;;;;;;;0.75;0.25;;;;;;;;5030689;28;45513;-69
2022/05/11 13:58:16;;;;;;;;;0.00;0.00;;;;;;;;5028120;28;45813;-70
2022/05/11 14:00:42;;;;;;;;;1.25;1.25;;;;;;;;5034517;28;45377;-69
2022/05/11 14:03:07;;;;;;;;;0.25;0.25;;;;;;;;5033646;28;45564;-69
2022/05/11 14:05:32;;;;;;;;;0.25;0.25;;;;;;;;5035195;28;45286;-69
2022/05/11 14:07:58;;;;;;;;;2.50;1.75;;;;;;;;5035458;28;47677;-69
2022/05/11 14:10:23;;;;;;;;;1.00;1.00;;;;;;;;5033438;28;45607;-69
2022/05/11 14:12:48;;;;;;;;;1.00;1.00;;;;;;;;5034746;28;45231;-69
2022/05/11 14:15:14;;;;;;;;;1.00;1.00;;;;;;;;5033635;28;47772;-69
2022/05/11 14:17:42;;;;;;;;;1.00;1.00;;;;;;;;5033936;28;47754;-69
2022/05/11 14:20:08;;;;;;;;;1.00;1.00;;;;;;;;5032947;28;45390;-69
2022/05/11 14:22:36;;;;;;;;;0.25;0.25;;;;;;;;5033241;28;45509;-70
2022/05/11 14:25:01;;;;;;;;;0.00;0.00;;;;;;;;5030275;28;45488;-70
2022/05/11 14:27:27;;;;;;;;;0.50;0.50;;;;;;;;5040388;28;48388;-70
2022/05/11 14:29:52;;;;;;;;;1.25;1.00;;;;;;;;5031266;28;45533;-70
2022/05/11 14:32:24;;;;;;;;;0.00;0.00;;;;;;;;5035757;28;45424;-69
2022/05/11 14:34:49;;;;;;;;;0.00;0.00;;;;;;;;5036154;28;45504;-70
2022/05/11 14:37:14;;;;;;;;;0.25;0.25;;;;;;;;5034122;28;46104;-69
2022/05/11 14:39:39;;;;;;;;;0.00;0.00;;;;;;;;5029865;28;45874;-69
2022/05/11 14:42:06;;;;;;;;;0.00;0.00;;;;;;;;5020958;28;45441;-69
2022/05/11 14:44:31;;;;;;;;;0.50;0.50;;;;;;;;5033292;28;45597;-69
2022/05/11 14:46:56;;;;;;;;;0.00;0.00;;;;;;;;5036361;28;45626;-68
2022/05/11 14:49:22;;;;;;;;;0.00;0.00;;;;;;;;5046291;28;45722;-69
2022/05/11 14:51:47;;;;;;;;;1.00;1.00;;;;;;;;5026082;28;45476;-69
2022/05/11 14:54:13;;;;;;;;;2.00;1.00;;;;;;;;5032909;28;45342;-70
2022/05/11 14:56:38;;;;;;;;;1.75;1.75;;;;;;;;5034065;28;45691;-69
2022/05/11 15:02:04;;;;;;;;;1.00;1.00;;;;;;;;5033605;28;45291;-69
2022/05/11 15:04:32;;;;;;;;;1.00;1.00;;;;;;;;5033837;28;45294;-69
2022/05/11 15:06:57;;;;;;;;;1.25;1.25;;;;;;;;5032524;28;48475;-70
2022/05/11 15:09:25;;;;;;;;;3.00;2.00;;;;;;;;5032638;28;45571;-70
2022/05/11 15:14:36;;;;;;;;;2.00;2.00;;;;;;;;5033962;28;45631;-71
2022/05/11 15:17:03;;;;;;;;;1.00;1.00;;;;;;;;5034450;28;47955;-69
2022/05/11 15:19:29;;;;;;;;;1.00;1.00;;;;;;;;5032100;28;45488;-70
2022/05/11 15:21:54;;;;;;;;;1.00;1.00;;;;;;;;5032470;28;45327;-70
2022/05/11 15:24:19;;;;;;;;;1.00;1.00;;;;;;;;5032155;28;45381;-69
2022/05/11 15:26:44;;;;;;;;;0.00;0.00;;;;;;;;5032641;28;47719;-70
2022/05/11 15:29:10;;;;;;;;;1.00;1.00;;;;;;;;5034632;28;46338;-70
2022/05/11 15:31:35;;;;;;;;;2.75;2.75;;;;;;;;5031827;28;45361;-71
2022/05/11 15:34:00;;;;;;;;;2.00;2.00;;;;;;;;5032246;28;45371;-70
2022/05/11 15:36:26;;;;;;;;;2.00;2.00;;;;;;;;5033460;28;46343;-70
2022/05/11 15:38:51;;;;;;;;;2.00;2.00;;;;;;;;5033739;28;45357;-70